Time;durP1;ratioP1;P1;durP2;ratioP2;P2;SDS_P1;SDS_P2;PMS_P1;PMS_P2;Temp;Humidity;BMP_temperature;BMP_pressure;BME280_temperature;BME280_humidity;BME280_pressure;Samples;Min_cycle;Max_cycle;Signal;HPM_P1;HPM_P2
2022/07/16 00:01:23;;;;;;;2.13;1.48;;;;;;;25.67;41.00;101965.63;4720505;30;20130;-81
2022/07/16 00:03:49;;;;;;;4.13;2.17;;;;;;;25.67;40.98;101976.31;4707408;30;20051;-82
2022/07/16 00:06:15;;;;;;;3.70;2.05;;;;;;;25.72;41.12;101965.94;4706202;30;20396;-81
2022/07/16 00:08:40;;;;;;;2.67;1.88;;;;;;;25.68;41.17;101963.84;4734788;30;20052;-82
2022/07/16 00:11:06;;;;;;;2.33;1.77;;;;;;;25.69;40.79;101965.50;4719324;30;20052;-81
2022/07/16 00:13:31;;;;;;;3.45;1.98;;;;;;;25.71;40.92;101972.28;4717072;30;20037;-81
2022/07/16 00:15:57;;;;;;;2.03;1.70;;;;;;;25.71;40.92;101966.13;4716621;30;20060;-80
2022/07/16 00:21:07;;;;;;;1.95;1.75;;;;;;;25.71;41.12;101969.63;4711616;30;21330;-81
2022/07/16 00:23:32;;;;;;;3.03;1.80;;;;;;;25.67;40.88;101968.31;4725783;30;20051;-81
2022/07/16 00:25:58;;;;;;;1.88;1.67;;;;;;;25.70;41.02;101967.16;4727523;30;20106;-81
2022/07/16 00:28:23;;;;;;;1.83;1.73;;;;;;;25.69;40.93;101971.66;4726424;30;20036;-81
2022/07/16 00:30:49;;;;;;;2.95;2.00;;;;;;;25.69;41.30;101962.84;4719857;30;20571;-80
2022/07/16 00:33:14;;;;;;;2.17;1.50;;;;;;;25.68;41.04;101970.00;4721771;30;20156;-81
2022/07/16 00:35:40;;;;;;;2.75;2.17;;;;;;;25.65;41.13;101958.84;4718197;30;20044;-82
2022/07/16 00:38:08;;;;;;;2.72;1.80;;;;;;;25.70;40.95;101967.97;4697626;30;20040;-81
2022/07/16 00:40:34;;;;;;;2.50;1.80;;;;;;;25.67;41.12;101962.13;4691041;30;20483;-81
2022/07/16 00:43:01;;;;;;;2.78;2.00;;;;;;;25.66;41.08;101961.31;4722447;30;20059;-80
2022/07/16 00:45:27;;;;;;;1.83;1.60;;;;;;;25.65;40.98;101946.31;4725716;30;20063;-80
2022/07/16 00:47:52;;;;;;;2.17;1.77;;;;;;;25.69;40.99;101955.66;4719558;30;20501;-80
2022/07/16 00:50:18;;;;;;;2.08;1.75;;;;;;;25.70;41.17;101961.81;4720488;30;20048;-80
2022/07/16 00:52:43;;;;;;;2.63;1.70;;;;;;;25.69;41.33;101950.31;4714311;30;20036;-81
2022/07/16 00:55:09;;;;;;;2.10;1.90;;;;;;;25.69;41.23;101968.16;4723600;30;20426;-81
2022/07/16 00:57:35;;;;;;;2.90;1.90;;;;;;;25.67;41.09;101978.16;4725600;30;20400;-81
2022/07/16 01:00:01;;;;;;;1.90;1.73;;;;;;;25.67;41.16;101989.63;4724835;30;20094;-80
2022/07/16 01:02:27;;;;;;;1.80;1.70;;;;;;;25.66;41.31;101985.31;4721918;30;20048;-81
2022/07/16 01:04:52;;;;;;;1.83;1.73;;;;;;;25.68;40.96;101998.53;4723227;30;21611;-81
2022/07/16 01:07:19;;;;;;;1.80;1.70;;;;;;;25.68;41.24;102002.03;4711243;30;20048;-80
2022/07/16 01:09:47;;;;;;;2.33;1.80;;;;;;;25.68;41.22;101998.53;4716300;30;20064;-81
2022/07/16 01:12:12;;;;;;;2.00;1.80;;;;;;;25.69;41.37;102000.19;4719802;30;20511;-81
2022/07/16 01:14:39;;;;;;;2.97;1.88;;;;;;;25.67;41.13;102000.31;4737375;30;20044;-80
2022/07/16 01:17:05;;;;;;;2.20;1.60;;;;;;;25.67;41.07;101997.63;4716728;30;20760;-81
2022/07/16 01:19:30;;;;;;;1.70;1.60;;;;;;;25.70;41.38;101991.16;4718259;30;20041;-80
2022/07/16 01:21:56;;;;;;;2.28;1.63;;;;;;;25.68;41.15;101993.19;4707415;30;20799;-80
2022/07/16 01:24:21;;;;;;;2.17;1.90;;;;;;;25.67;41.23;101994.97;4721477;30;20048;-81
2022/07/16 01:26:47;;;;;;;2.78;1.80;;;;;;;25.69;41.38;101997.50;4723653;30;20056;-80
2022/07/16 01:29:12;;;;;;;2.03;1.83;;;;;;;25.68;41.23;101998.53;4716590;30;20102;-80
2022/07/16 01:31:38;;;;;;;2.47;2.22;;;;;;;25.68;41.05;101995.88;4718694;30;20512;-81
2022/07/16 01:36:57;;;;;;;1.60;1.50;;;;;;;25.68;41.26;101995.88;4723073;30;20067;-80
2022/07/16 01:39:24;;;;;;;2.22;1.77;;;;;;;25.66;41.23;101989.84;4696207;30;20516;-80
2022/07/16 01:41:56;;;;;;;2.15;1.70;;;;;;;25.66;41.32;101993.31;4718499;30;20052;-80
2022/07/16 01:44:24;;;;;;;1.80;1.50;;;;;;;25.67;41.29;101988.81;4718666;30;20039;-80
2022/07/16 01:46:51;;;;;;;3.00;1.80;;;;;;;25.66;41.69;101984.50;4717375;30;20063;-81
2022/07/16 01:49:16;;;;;;;1.73;1.63;;;;;;;25.66;41.38;101990.66;4715250;30;20301;-80
2022/07/16 01:51:42;;;;;;;2.42;1.80;;;;;;;25.66;41.73;101992.50;4722114;30;20491;-80
2022/07/16 01:54:07;;;;;;;1.88;1.73;;;;;;;25.66;41.31;101996.00;4706366;30;20044;-80
2022/07/16 01:56:33;;;;;;;2.45;1.85;;;;;;;25.69;41.61;102005.50;4710491;30;20045;-81
2022/07/16 01:58:58;;;;;;;2.60;1.67;;;;;;;25.69;41.22;102003.66;4720496;30;20052;-80
2022/07/16 02:01:24;;;;;;;1.85;1.75;;;;;;;25.65;41.27;101996.19;4718042;30;20049;-80
2022/07/16 02:03:49;;;;;;;2.20;1.60;;;;;;;25.63;41.60;101996.38;4714028;30;20607;-80
2022/07/16 02:06:15;;;;;;;2.00;1.80;;;;;;;25.65;41.21;102002.34;4722754;30;20048;-80
2022/07/16 02:08:40;;;;;;;2.30;1.80;;;;;;;25.63;41.55;102003.56;4706061;30;20045;-78
2022/07/16 02:11:07;;;;;;;2.03;1.60;;;;;;;25.62;41.51;102002.72;4721791;30;20534;-77
2022/07/16 02:13:33;;;;;;;1.98;1.60;;;;;;;25.63;41.75;102004.38;4687224;30;20045;-77
2022/07/16 02:15:58;;;;;;;2.97;1.70;;;;;;;25.68;41.37;102011.88;4718888;30;20056;-77
2022/07/16 02:18:24;;;;;;;3.00;1.77;;;;;;;25.66;41.65;102012.00;4716163;30;20053;-77
2022/07/16 02:20:50;;;;;;;1.88;1.65;;;;;;;25.64;41.66;102003.38;4716834;30;20060;-77
2022/07/16 02:23:15;;;;;;;2.30;1.85;;;;;;;25.64;41.54;102000.69;4702124;30;20033;-77
2022/07/16 02:25:41;;;;;;;2.20;1.50;;;;;;;25.66;41.76;102004.00;4720845;30;20489;-77
2022/07/16 02:28:07;;;;;;;1.60;1.50;;;;;;;25.66;41.59;101997.84;4721129;30;20785;-77
2022/07/16 02:30:51;;;;;;;2.00;1.75;;;;;;;25.66;41.57;102011.19;4718358;30;20444;-77
2022/07/16 02:33:19;;;;;;;2.08;1.50;;;;;;;25.61;41.38;102009.91;4714996;30;20044;-77
2022/07/16 02:35:45;;;;;;;1.55;1.45;;;;;;;25.60;41.84;102010.09;4716367;30;20119;-77
2022/07/16 02:38:12;;;;;;;2.10;1.85;;;;;;;25.63;41.66;102003.56;4704499;30;20040;-77
2022/07/16 02:40:38;;;;;;;2.13;1.63;;;;;;;25.66;41.66;102025.34;4702112;30;20516;-77
2022/07/16 02:43:05;;;;;;;1.42;1.33;;;;;;;25.64;41.47;102026.53;4713620;30;20044;-80
2022/07/16 02:45:32;;;;;;;2.35;1.67;;;;;;;25.61;41.51;102022.41;4683225;30;20049;-80
2022/07/16 02:47:58;;;;;;;2.15;1.50;;;;;;;25.65;41.63;102033.53;4715430;30;20102;-77
2022/07/16 02:50:24;;;;;;;1.70;1.60;;;;;;;25.61;41.82;102033.91;4713766;30;20500;-78
2022/07/16 02:52:50;;;;;;;2.55;1.60;;;;;;;25.64;41.67;102030.03;4700505;30;20127;-77
2022/07/16 02:55:16;;;;;;;1.92;1.55;;;;;;;25.65;41.80;102033.53;4705473;30;20049;-78
2022/07/16 02:57:42;;;;;;;1.77;1.63;;;;;;;25.61;41.77;102031.25;4720505;30;20090;-78
2022/07/16 03:00:10;;;;;;;2.13;1.73;;;;;;;25.63;41.54;102031.06;4709037;30;20101;-78
2022/07/16 03:02:36;;;;;;;1.83;1.60;;;;;;;25.61;41.83;102031.25;4708890;30;20041;-78
2022/07/16 03:05:03;;;;;;;1.88;1.42;;;;;;;25.64;41.59;102038.03;4715777;30;20036;-78
2022/07/16 03:07:29;;;;;;;2.08;1.58;;;;;;;25.64;41.78;102037.22;4719539;30;20590;-78
2022/07/16 03:09:55;;;;;;;1.77;1.52;;;;;;;25.63;41.61;102033.72;4699232;30;21004;-77
2022/07/16 03:12:20;;;;;;;1.90;1.45;;;;;;;25.62;41.67;102037.41;4717264;30;20040;-78
2022/07/16 03:14:46;;;;;;;1.75;1.65;;;;;;;25.64;41.62;102042.56;4720040;30;20057;-78
2022/07/16 03:17:12;;;;;;;1.58;1.48;;;;;;;25.58;41.88;102039.63;4714492;30;20064;-77
2022/07/16 03:19:38;;;;;;;1.58;1.48;;;;;;;25.58;41.75;102042.31;4712848;30;20044;-78
2022/07/16 03:22:04;;;;;;;1.50;1.45;;;;;;;25.64;41.63;102047.88;4716648;30;20044;-78
2022/07/16 03:24:29;;;;;;;1.58;1.48;;;;;;;25.59;42.02;102051.13;4708441;30;20037;-77
2022/07/16 03:26:56;;;;;;;1.45;1.35;;;;;;;25.62;41.99;102053.41;4735089;30;20500;-79
2022/07/16 03:29:21;;;;;;;1.85;1.70;;;;;;;25.61;41.97;102057.91;4716416;30;20078;-78
2022/07/16 03:31:47;;;;;;;1.55;1.25;;;;;;;25.61;41.89;102057.09;4711486;30;20102;-78
2022/07/16 03:34:12;;;;;;;2.35;1.80;;;;;;;25.61;42.25;102057.09;4715047;30;20052;-78
2022/07/16 03:36:38;;;;;;;1.38;1.27;;;;;;;25.60;41.74;102048.28;4720627;30;20118;-78
2022/07/16 03:41:29;;;;;;;1.77;1.50;;;;;;;25.56;41.89;102051.50;4691582;30;20589;-78
2022/07/16 03:43:55;;;;;;;1.60;1.50;;;;;;;25.59;41.76;102051.94;4717799;30;21870;-78
2022/07/16 03:46:20;;;;;;;2.15;1.48;;;;;;;25.59;41.70;102053.78;4715486;30;20047;-78
2022/07/16 03:48:46;;;;;;;1.90;1.73;;;;;;;25.56;41.68;102054.19;4712151;30;20048;-78
2022/07/16 03:51:12;;;;;;;1.70;1.60;;;;;;;25.59;41.87;102059.97;4697304;30;20052;-78
2022/07/16 03:53:38;;;;;;;2.60;1.40;;;;;;;25.58;41.94;102065.47;4716246;30;20136;-78
2022/07/16 03:56:04;;;;;;;2.85;1.27;;;;;;;25.54;42.14;102057.03;4709569;30;20102;-78
2022/07/16 03:58:30;;;;;;;2.42;1.23;;;;;;;25.55;41.87;102068.53;4717249;30;20104;-78
2022/07/16 04:00:56;;;;;;;1.48;1.33;;;;;;;25.51;41.90;102065.41;4719306;30;20044;-78
2022/07/16 04:03:22;;;;;;;1.40;1.23;;;;;;;25.59;42.00;102080.47;4718651;30;20068;-80
2022/07/16 04:05:48;;;;;;;1.48;1.30;;;;;;;25.52;42.06;102061.72;4716325;30;20040;-80
2022/07/16 04:08:13;;;;;;;1.95;1.67;;;;;;;25.56;42.09;102079.00;4717166;30;20059;-78
2022/07/16 04:10:39;;;;;;;2.63;1.60;;;;;;;25.61;41.90;102084.59;4714819;30;20045;-78
2022/07/16 04:13:04;;;;;;;2.45;1.50;;;;;;;25.58;42.06;102082.31;4704963;30;20052;-78
2022/07/16 04:15:30;;;;;;;1.77;1.48;;;;;;;25.57;41.80;102077.16;4720947;30;20061;-80
2022/07/16 04:17:56;;;;;;;1.58;1.23;;;;;;;25.57;41.71;102077.16;4716426;30;20060;-78
2022/07/16 04:20:21;;;;;;;3.03;1.80;;;;;;;25.58;41.95;102089.50;4716046;30;20044;-78
2022/07/16 04:22:47;;;;;;;1.63;1.40;;;;;;;25.53;41.93;102089.22;4715228;30;21161;-78
2022/07/16 04:25:13;;;;;;;1.63;1.17;;;;;;;25.58;42.01;102098.31;4717008;30;20060;-78
2022/07/16 04:27:43;;;;;;;1.63;1.50;;;;;;;25.57;42.10;102093.16;4714182;30;20045;-79
2022/07/16 04:30:10;;;;;;;2.00;1.80;;;;;;;25.54;41.82;102096.22;4717260;30;20056;-81
2022/07/16 04:32:37;;;;;;;1.73;1.50;;;;;;;25.58;41.72;102105.50;4694967;30;20496;-81
2022/07/16 04:35:03;;;;;;;2.33;1.25;;;;;;;25.55;41.88;102109.38;4716871;30;20044;-79
2022/07/16 04:37:28;;;;;;;1.65;1.33;;;;;;;25.57;41.99;102101.16;4704171;30;20125;-78
2022/07/16 04:39:54;;;;;;;2.30;1.52;;;;;;;25.53;41.63;102102.56;4716629;30;20041;-78
2022/07/16 04:42:19;;;;;;;1.73;1.40;;;;;;;25.56;41.67;102113.69;4704672;30;20512;-78
2022/07/16 04:44:45;;;;;;;1.98;1.60;;;;;;;25.56;42.08;102111.00;4714687;30;20045;-79
2022/07/16 04:47:11;;;;;;;1.50;1.38;;;;;;;25.57;41.96;102110.00;4718896;30;20086;-80
2022/07/16 04:49:36;;;;;;;1.88;1.70;;;;;;;25.54;42.07;102114.88;4722057;30;20276;-78
2022/07/16 04:52:02;;;;;;;2.90;1.48;;;;;;;25.58;41.91;102117.00;4707391;30;20047;-78
2022/07/16 04:54:28;;;;;;;3.05;2.05;;;;;;;25.55;41.96;102124.53;4718167;30;20659;-81
2022/07/16 04:56:54;;;;;;;1.77;1.67;;;;;;;25.57;41.99;102123.34;4724874;30;20052;-81
2022/07/16 04:59:19;;;;;;;1.52;1.42;;;;;;;25.55;41.77;102133.38;4714519;30;20057;-81
2022/07/16 05:01:45;;;;;;;1.60;1.50;;;;;;;25.54;42.00;102126.38;4721752;30;20525;-78
2022/07/16 05:04:10;;;;;;;2.15;1.50;;;;;;;25.52;41.88;102128.41;4717717;30;20819;-81
2022/07/16 05:06:36;;;;;;;1.75;1.25;;;;;;;25.51;41.94;102136.59;4717995;30;20070;-78
2022/07/16 05:09:02;;;;;;;1.45;1.30;;;;;;;25.54;41.75;102139.72;4706332;30;20104;-78
2022/07/16 05:11:28;;;;;;;2.13;1.50;;;;;;;25.57;41.79;102150.00;4703720;30;20048;-80
2022/07/16 05:13:54;;;;;;;1.77;1.40;;;;;;;25.59;41.65;102161.31;4717719;30;21156;-80
2022/07/16 05:16:20;;;;;;;1.73;1.63;;;;;;;25.55;42.18;102161.88;4717075;30;20122;-80
2022/07/16 05:18:45;;;;;;;1.55;1.40;;;;;;;25.59;41.64;102163.16;4717536;30;20614;-78
2022/07/16 05:21:11;;;;;;;1.10;1.10;;;;;;;25.59;41.68;102169.31;4722515;30;20047;-78
2022/07/16 05:23:36;;;;;;;1.38;1.27;;;;;;;25.55;41.66;102168.03;4706594;30;20165;-78
2022/07/16 05:26:02;;;;;;;1.88;1.33;;;;;;;25.55;41.66;102165.38;4708829;30;20075;-80
2022/07/16 05:28:27;;;;;;;1.40;1.30;;;;;;;25.54;41.85;102171.72;4718366;30;20036;-80
2022/07/16 05:30:53;;;;;;;2.45;1.67;;;;;;;25.59;41.64;102176.50;4704499;30;20055;-80
2022/07/16 05:33:18;;;;;;;1.70;1.60;;;;;;;25.59;41.62;102171.16;4704514;30;20509;-80
2022/07/16 05:35:44;;;;;;;1.58;1.35;;;;;;;25.56;41.84;102185.69;4719195;30;20053;-80
2022/07/16 05:38:10;;;;;;;1.50;1.23;;;;;;;25.56;41.79;102183.03;4718561;30;20171;-80
2022/07/16 05:40:36;;;;;;;2.88;1.48;;;;;;;25.58;41.86;102182.84;4704297;30;20487;-80
2022/07/16 05:43:02;;;;;;;1.60;1.42;;;;;;;25.57;41.55;102179.34;4698120;30;20121;-78
2022/07/16 05:45:28;;;;;;;2.22;1.60;;;;;;;25.55;41.71;102175.22;4718179;30;20807;-78
2022/07/16 05:47:54;;;;;;;1.50;1.40;;;;;;;25.58;41.53;102182.84;4702788;30;20044;-78
2022/07/16 05:50:19;;;;;;;1.42;1.33;;;;;;;25.57;42.03;102189.19;4719572;30;20047;-78
2022/07/16 05:52:45;;;;;;;3.25;1.30;;;;;;;25.57;41.78;102183.84;4717991;30;20135;-78
2022/07/16 05:55:11;;;;;;;2.28;1.45;;;;;;;25.59;41.92;102197.84;4690220;30;20044;-78
2022/07/16 05:57:36;;;;;;;1.85;1.52;;;;;;;25.57;41.55;102195.34;4690005;30;20060;-81
2022/07/16 06:00:03;;;;;;;1.52;1.40;;;;;;;25.59;41.84;102196.00;4724194;30;20063;-80
2022/07/16 06:02:39;;;;;;;1.85;1.38;;;;;;;25.58;41.64;102201.50;4717409;30;20064;-78
2022/07/16 06:05:05;;;;;;;1.98;1.35;;;;;;;25.56;42.09;102204.38;4720394;30;20041;-78
2022/07/16 06:07:31;;;;;;;1.52;1.23;;;;;;;25.58;41.78;102207.69;4719523;30;20154;-78
2022/07/16 06:09:56;;;;;;;2.92;1.67;;;;;;;25.60;41.82;102208.31;4719656;30;20045;-78
2022/07/16 06:12:22;;;;;;;1.92;1.63;;;;;;;25.60;41.84;102215.50;4704422;30;20869;-80
2022/07/16 06:14:47;;;;;;;1.63;1.33;;;;;;;25.60;41.64;102216.31;4719277;30;20122;-83
2022/07/16 06:17:13;;;;;;;1.67;1.30;;;;;;;25.54;41.57;102222.41;4714998;30;20287;-80
2022/07/16 06:19:43;;;;;;;1.35;1.23;;;;;;;25.60;41.65;102235.00;4717071;30;20432;-80
2022/07/16 06:22:09;;;;;;;;;;;;;;;25.60;41.90;102231.50;4721921;30;20047;-80
2022/07/16 06:24:35;;;;;;;2.53;1.50;;;;;;;25.59;41.52;102235.19;4718780;30;19930;-81
2022/07/16 06:27:01;;;;;;;1.83;1.58;;;;;;;25.54;41.87;102230.41;4710035;30;20673;-81
2022/07/16 06:29:26;;;;;;;1.83;1.20;;;;;;;25.62;41.83;102242.81;4706894;30;20174;-81
2022/07/16 06:31:52;;;;;;;3.03;1.45;;;;;;;25.52;41.49;102226.28;4722111;30;20102;-81
2022/07/16 06:34:17;;;;;;;1.92;1.48;;;;;;;25.62;41.85;102250.81;4717061;30;20123;-80
2022/07/16 06:36:43;;;;;;;2.22;1.48;;;;;;;25.64;41.84;102246.13;4721782;30;21279;-80
2022/07/16 06:39:08;;;;;;;1.40;1.30;;;;;;;25.60;41.84;102240.31;4715012;30;20072;-81
2022/07/16 06:41:39;;;;;;;2.10;1.50;;;;;;;25.63;41.60;102244.47;4717338;30;20045;-81
2022/07/16 06:44:09;;;;;;;1.60;1.25;;;;;;;25.55;41.51;102247.22;4684555;30;20052;-81
2022/07/16 06:46:35;;;;;;;1.30;1.20;;;;;;;25.48;41.69;102238.28;4718549;30;20085;-80
2022/07/16 06:49:01;;;;;;;1.08;0.98;;;;;;;25.58;41.46;102252.19;4720596;30;20045;-81
2022/07/16 06:51:27;;;;;;;1.50;1.40;;;;;;;25.65;41.62;102271.78;4718943;30;20837;-81
2022/07/16 06:53:52;;;;;;;2.17;1.40;;;;;;;25.66;41.33;102276.09;4714847;30;20057;-81
2022/07/16 06:56:18;;;;;;;1.80;1.50;;;;;;;25.62;41.55;102264.16;4716036;30;20045;-79
2022/07/16 06:58:44;;;;;;;2.35;1.50;;;;;;;25.63;41.34;102265.81;4718609;30;20061;-81
2022/07/16 07:01:09;;;;;;;1.13;1.02;;;;;;;25.68;41.81;102273.31;4722246;30;20055;-81
2022/07/16 07:03:38;;;;;;;1.52;1.35;;;;;;;25.68;41.52;102273.31;4707717;30;20115;-82
2022/07/16 07:06:03;;;;;;;1.77;1.40;;;;;;;25.57;41.27;102254.03;4718137;30;20044;-82
2022/07/16 07:08:29;;;;;;;2.47;1.67;;;;;;;25.73;41.34;102286.91;4704552;30;20044;-80
2022/07/16 07:10:55;;;;;;;1.92;1.42;;;;;;;25.74;41.47;102292.06;4718807;30;20044;-81
2022/07/16 07:13:20;;;;;;;2.17;1.73;;;;;;;25.69;41.33;102294.47;4702517;30;20049;-81
2022/07/16 07:15:46;;;;;;;1.98;1.38;;;;;;;25.71;41.50;102303.13;4721775;30;20060;-82
2022/07/16 07:18:11;;;;;;;2.08;1.30;;;;;;;25.73;41.40;102309.09;4719306;30;20048;-82
2022/07/16 07:20:37;;;;;;;1.67;1.35;;;;;;;25.71;41.10;102302.28;4732885;30;20048;-81
2022/07/16 07:23:02;;;;;;;1.80;1.40;;;;;;;25.70;41.43;102311.31;4700731;30;20094;-81
2022/07/16 07:25:28;;;;;;;1.58;1.45;;;;;;;25.72;41.46;102315.44;4717883;30;20036;-82
2022/07/16 07:27:53;;;;;;;2.10;1.38;;;;;;;25.73;41.65;102311.75;4705765;30;20053;-82
2022/07/16 07:30:19;;;;;;;2.38;1.52;;;;;;;25.70;41.55;102314.78;4722299;30;20052;-84
2022/07/16 07:32:45;;;;;;;1.88;1.48;;;;;;;25.73;41.61;102318.94;4721550;30;20059;-85
2022/07/16 07:35:11;;;;;;;1.83;1.40;;;;;;;25.76;41.29;102323.91;4689404;30;20056;-84
2022/07/16 07:37:37;;;;;;;3.38;1.30;;;;;;;25.74;41.43;102325.94;4720859;30;20064;-84
2022/07/16 07:40:04;;;;;;;1.40;1.25;;;;;;;25.79;41.16;102331.53;4720041;30;20041;-84
2022/07/16 07:42:29;;;;;;;1.83;1.50;;;;;;;25.81;41.26;102329.50;4716607;30;20531;-84
2022/07/16 07:44:55;;;;;;;1.95;1.20;;;;;;;25.77;41.18;102321.03;4696843;30;20045;-83
2022/07/16 07:47:21;;;;;;;1.52;1.40;;;;;;;25.84;41.15;102332.63;4718989;30;20064;-83
2022/07/16 07:49:47;;;;;;;1.38;1.27;;;;;;;25.84;40.99;102331.81;4733054;30;20123;-84
2022/07/16 07:52:13;;;;;;;2.15;1.02;;;;;;;25.85;41.44;102328.13;4720207;30;20063;-85
2022/07/16 07:54:39;;;;;;;2.72;1.25;;;;;;;25.85;41.04;102330.78;4718385;30;20837;-83
2022/07/16 07:57:05;;;;;;;1.55;1.10;;;;;;;25.88;41.20;102343.78;4721397;30;20140;-83
2022/07/16 07:59:30;;;;;;;1.10;1.10;;;;;;;25.86;41.06;102346.66;4702858;30;20053;-83
2022/07/16 08:01:56;;;;;;;2.50;1.10;;;;;;;25.89;41.34;102343.59;4724934;30;20041;-82
2022/07/16 08:04:21;;;;;;;2.78;2.03;;;;;;;25.83;41.35;102343.50;4716327;30;20151;-82
2022/07/16 08:06:47;;;;;;;1.58;1.15;;;;;;;25.85;41.12;102350.31;4720564;30;20117;-84
2022/07/16 08:09:12;;;;;;;1.58;1.00;;;;;;;25.87;41.09;102347.47;4717991;30;20055;-84
2022/07/16 08:11:38;;;;;;;1.67;1.30;;;;;;;25.93;40.97;102361.91;4718350;30;20056;-84
2022/07/16 08:14:04;;;;;;;0.80;0.80;;;;;;;25.92;40.65;102355.75;4706005;30;20421;-84
2022/07/16 08:16:29;;;;;;;1.23;1.05;;;;;;;25.92;41.03;102357.59;4708376;30;20069;-84
2022/07/16 08:18:55;;;;;;;2.55;1.17;;;;;;;25.90;40.76;102355.94;4709585;30;20131;-86
2022/07/16 08:21:20;;;;;;;4.13;1.60;;;;;;;25.89;40.71;102364.94;4722173;30;20045;-85
2022/07/16 08:26:30;;;;;;;2.75;1.30;;;;;;;25.95;40.54;102370.56;4720456;30;20508;-84
2022/07/16 08:28:55;;;;;;;1.70;1.10;;;;;;;25.93;40.54;102377.94;4721119;30;20102;-85
2022/07/16 08:31:21;;;;;;;2.40;1.17;;;;;;;25.90;41.04;102379.94;4708909;30;20110;-83
2022/07/16 08:33:46;;;;;;;2.80;1.65;;;;;;;25.93;40.40;102377.94;4723971;30;20520;-85
2022/07/16 08:36:12;;;;;;;1.50;1.08;;;;;;;25.89;40.49;102367.63;4724123;30;20110;-85
2022/07/16 08:38:38;;;;;;;3.58;1.35;;;;;;;25.88;40.33;102363.28;4721451;30;20053;-84
2022/07/16 08:41:05;;;;;;;3.38;1.35;;;;;;;25.83;40.22;102365.66;4717377;30;20079;-85
2022/07/16 08:43:32;;;;;;;2.35;1.05;;;;;;;25.90;40.75;102379.94;4730854;30;20052;-85
2022/07/16 08:45:57;;;;;;;2.15;1.00;;;;;;;25.97;40.54;102382.72;4699470;30;20156;-84
2022/07/16 08:48:24;;;;;;;1.80;1.27;;;;;;;25.96;40.04;102388.22;4709199;30;20059;-85
2022/07/16 08:50:52;;;;;;;1.23;0.85;;;;;;;25.86;40.22;102376.00;4715322;30;20453;-82
2022/07/16 08:53:22;;;;;;;2.83;1.10;;;;;;;25.96;40.17;102394.41;4719133;30;20405;-86
2022/07/16 08:55:52;;;;;;;2.13;1.20;;;;;;;25.82;40.38;102369.34;4717693;30;20049;-86
2022/07/16 08:58:18;;;;;;;1.08;0.98;;;;;;;25.96;40.10;102390.91;4721613;30;20116;-84
2022/07/16 09:00:45;;;;;;;1.13;0.90;;;;;;;25.89;40.18;102388.16;4682674;30;20039;-83
2022/07/16 09:03:14;;;;;;;4.10;1.23;;;;;;;25.96;40.31;102401.56;4718131;30;20551;-83
2022/07/16 09:05:41;;;;;;;1.75;1.08;;;;;;;25.93;40.21;102393.94;4689107;30;20040;-83
2022/07/16 09:08:07;;;;;;;1.95;1.02;;;;;;;25.97;40.33;102413.91;4708675;30;20044;-85
2022/07/16 09:10:37;;;;;;;2.25;1.23;;;;;;;25.98;40.55;102419.06;4723298;30;20044;-83
2022/07/16 09:13:03;;;;;;;1.83;1.10;;;;;;;25.98;40.51;102428.91;4716821;30;20045;-83
2022/07/16 09:15:40;;;;;;;2.38;0.90;;;;;;;25.95;40.33;102422.09;4709409;30;20072;-82
2022/07/16 09:18:10;;;;;;;1.25;0.93;;;;;;;25.97;40.23;102430.75;4733829;30;20103;-82
2022/07/16 09:20:45;;;;;;;2.63;1.10;;;;;;;25.99;40.01;102438.56;4722842;30;20049;-82
2022/07/16 09:23:21;;;;;;;1.42;1.00;;;;;;;25.97;40.28;102424.59;4723243;30;20048;-84
2022/07/16 09:25:49;;;;;;;1.73;1.20;;;;;;;25.97;40.35;102435.25;4721633;30;20033;-84
2022/07/16 09:28:15;;;;;;;2.75;1.25;;;;;;;25.97;40.02;102427.25;4724753;30;20037;-84
2022/07/16 09:30:40;;;;;;;1.40;1.17;;;;;;;26.01;40.06;102431.22;4698339;30;20051;-84
2022/07/16 09:33:21;;;;;;;3.72;0.90;;;;;;;25.98;40.30;102431.56;4726360;30;20052;-83
2022/07/16 09:36:02;;;;;;;1.02;0.90;;;;;;;26.02;39.99;102440.88;4730894;30;20041;-84
2022/07/16 09:38:27;;;;;;;1.67;1.13;;;;;;;26.00;39.79;102446.41;4724790;30;20049;-84
2022/07/16 09:40:54;;;;;;;1.50;0.85;;;;;;;26.00;40.24;102450.91;4726793;30;20102;-84
2022/07/16 09:43:22;;;;;;;2.63;1.40;;;;;;;26.00;40.16;102449.06;4723592;30;20041;-84
2022/07/16 09:46:01;;;;;;;3.45;1.50;;;;;;;26.04;39.82;102449.56;4699612;30;20045;-84
2022/07/16 09:48:28;;;;;;;;;;;;;;;26.03;40.19;102450.53;4735311;30;20049;-84
2022/07/16 09:50:58;;;;;;;0.88;0.75;;;;;;;26.04;40.00;102447.72;4726756;30;19923;-85
2022/07/16 09:53:26;;;;;;;2.38;1.25;;;;;;;25.99;40.36;102438.56;4726078;30;20044;-84
2022/07/16 09:56:03;;;;;;;1.37;0.97;;;;;;;26.04;40.10;102458.41;4724703;30;20106;-83
2022/07/16 09:58:30;;;;;;;1.20;0.85;;;;;;;25.99;40.09;102454.59;4723931;30;20075;-84
2022/07/16 10:00:57;;;;;;;2.38;1.20;;;;;;;26.00;39.60;102457.06;4712274;30;20558;-84
2022/07/16 10:03:23;;;;;;;0.93;0.75;;;;;;;26.03;39.94;102472.75;4722963;30;20059;-84
2022/07/16 10:05:49;;;;;;;2.70;1.17;;;;;;;26.01;39.80;102471.25;4724574;30;20036;-84
2022/07/16 10:08:15;;;;;;;4.60;1.60;;;;;;;26.02;39.97;102476.41;4714093;30;20060;-84
2022/07/16 10:10:41;;;;;;;1.92;1.02;;;;;;;26.03;39.62;102475.44;4723666;30;20037;-84
2022/07/16 10:13:09;;;;;;;3.10;1.20;;;;;;;26.03;39.82;102480.75;4721268;30;20145;-84
2022/07/16 10:15:36;;;;;;;1.17;0.95;;;;;;;26.03;39.92;102480.75;4726771;30;20060;-84
2022/07/16 10:18:01;;;;;;;2.40;1.23;;;;;;;26.03;39.69;102479.91;4719230;30;20060;-84
2022/07/16 10:20:34;;;;;;;1.77;1.10;;;;;;;26.05;39.62;102484.06;4709647;30;20109;-84
2022/07/16 10:23:05;;;;;;;2.13;0.90;;;;;;;26.03;39.42;102482.56;4731171;30;20052;-85
2022/07/16 10:25:35;;;;;;;2.25;1.08;;;;;;;26.03;39.64;102483.44;4725471;30;20044;-84
2022/07/16 10:28:01;;;;;;;2.88;1.50;;;;;;;26.00;39.57;102473.09;4726512;30;20472;-84
2022/07/16 10:30:30;;;;;;;3.50;1.15;;;;;;;26.04;39.36;102478.91;4726767;30;20055;-85
2022/07/16 10:33:14;;;;;;;2.20;1.13;;;;;;;26.07;39.60;102484.72;4679144;30;20448;-84
2022/07/16 10:35:45;;;;;;;2.35;1.38;;;;;;;26.05;39.39;102489.41;4715267;30;20232;-84
2022/07/16 10:38:20;;;;;;;4.32;1.73;;;;;;;26.04;39.41;102487.75;4723571;30;20210;-83
2022/07/16 10:41:03;;;;;;;3.50;1.40;;;;;;;26.02;39.66;102483.59;4725032;30;20053;-84
2022/07/16 10:43:29;;;;;;;4.32;1.30;;;;;;;26.04;39.25;102494.94;4726808;30;20048;-84
2022/07/16 10:46:00;;;;;;;2.45;1.05;;;;;;;26.04;39.18;102498.44;4712710;30;20416;-83
2022/07/16 10:48:49;;;;;;;2.30;0.98;;;;;;;26.06;39.40;102501.75;4711510;30;20040;-84
2022/07/16 10:51:22;;;;;;;2.30;1.00;;;;;;;26.04;39.65;102490.44;4737804;30;20135;-84
2022/07/16 10:53:57;;;;;;;1.75;1.20;;;;;;;26.06;39.54;102499.09;4732661;30;20703;-84
2022/07/16 10:56:47;;;;;;;2.65;1.30;;;;;;;26.05;39.16;102499.25;4724606;30;20048;-83
2022/07/16 10:59:13;;;;;;;;;;;;;;;26.06;39.20;102506.25;4725244;30;20060;-84
2022/07/16 11:01:41;;;;;;;2.60;1.60;;;;;;;26.04;39.58;102498.44;4712329;30;19930;-84
2022/07/16 11:04:09;;;;;;;2.70;1.20;;;;;;;26.07;39.34;102507.91;4718430;30;20079;-83
2022/07/16 11:06:36;;;;;;;1.77;1.17;;;;;;;26.03;39.15;102511.94;4721798;30;20121;-84
2022/07/16 11:09:05;;;;;;;3.47;1.08;;;;;;;26.02;39.49;102510.28;4725230;30;20045;-84
2022/07/16 11:11:35;;;;;;;1.38;1.10;;;;;;;26.05;39.22;102508.09;4723711;30;20040;-83
2022/07/16 11:14:02;;;;;;;2.75;0.93;;;;;;;26.06;38.93;102516.94;4726141;30;20068;-83
2022/07/16 11:16:28;;;;;;;3.65;1.13;;;;;;;26.03;38.92;102502.13;4716260;30;20091;-82
2022/07/16 11:18:55;;;;;;;5.93;1.25;;;;;;;26.06;39.19;102507.09;4704261;30;20060;-83
2022/07/16 11:21:21;;;;;;;3.47;1.40;;;;;;;26.05;39.22;102518.78;4731853;30;20055;-82
2022/07/16 11:23:50;;;;;;;1.00;0.75;;;;;;;26.07;39.08;102518.59;4723954;30;20079;-83
2022/07/16 11:26:16;;;;;;;2.45;1.15;;;;;;;26.05;39.22;102513.44;4732414;30;20064;-84
2022/07/16 11:29:02;;;;;;;2.05;1.40;;;;;;;26.07;38.89;102507.91;4728556;30;20047;-83
2022/07/16 11:31:34;;;;;;;3.13;1.05;;;;;;;26.09;38.92;102519.25;4713385;30;20067;-82
2022/07/16 11:34:05;;;;;;;2.60;1.08;;;;;;;26.06;39.07;102517.78;4728925;30;20060;-83
2022/07/16 11:36:43;;;;;;;2.67;1.08;;;;;;;26.08;39.42;102514.91;4722621;30;20040;-83